KFBL

Faribault Municipal-Liz Wall Strohfus Field Airport

Faribault, Minnesota, USA
METAR KFBL 191515Z AUTO 17008KT 10SM CLR M02/M04 A2962 RMK AO2
Observed Flight Rules
Jan-19 @ 15:15 UTC (16 minutes ago) Visual Flight Rules
Wind Visibility Clouds
170° at 8 knots 10 miles
  • Clear skies
Temperatures Readings
Current -2°C / 28°F
Dewpoint -4°C / 25°F
Humidity 86%
Altimeter 29.62" Hg
Pressure 1003 hPa
Elevation 322
METAR KFBL 191515Z AUTO 17008KT 10SM CLR M02/M04 A2962 RMK AO2
Observed Flight Rules
Jan-19 @ 15:15 UTC
(16 minutes ago)
VFR
Wind Visibility
170° at 8 knots 10 miles
Clouds
  • Clear skies
Temperature Dewpoint
-2°C / 28°F -4°C / 25°F
Humidity Altimeter Pressure
86% 29.62" Hg 1003 hPa